Flinterbirka — PHFQ — position and weather

sailwx.info

Track history (hours):
 
Tides and Currents Weather Stations Pressure Air Temp Water Temp Dewpoint Dewpoint Depression Visibility Wind Speed Wind Dir Waves Ship Positions

Flinterbirka

Last reported at 2015-Mar-04 17:20 UTC. Time now 2015-Mar-05 04:13 UTC.
Position N 53°13' W 009°11'.

Length 81 m; draft 3.8 m.

Type: Cargo ship. MMSI: 246525000.

Date/timePositionNaut miles runAvg speedWind from/ knotsBaromVisibWave heightAir tempDewpointWater temp
2015-Mar-04 17:20N 53°13' W 009°11'1411.4
2015-Mar-04 16:06N 53°03' W 009°27'4211.7
2015-Mar-04 12:28N 52°30' W 010°12'1011.3
2015-Mar-04 11:33N 52°22' W 010°23'1111.0
2015-Mar-04 10:33N 52°14' W 010°35'19 9.5
2015-Mar-04 08:33N 51°56' W 010°46'4013.1
2015-Mar-04 05:30N 51°27' W 010°03'5 4.8
2015-Mar-04 04:25N 51°25' W 009°55'2 2.0
2015-Mar-04 03:25N 51°24' W 009°52'2 1.6
2015-Mar-04 02:25N 51°23' W 009°50'8 9.4
2015-Mar-04 01:33N 51°26' W 010°02'6 5.9
2015-Mar-04 00:33N 51°24' W 009°53'5 5.5
2015-Mar-03 23:33N 51°22' W 009°45'6 5.7
2015-Mar-03 22:33N 51°20' W 009°36'6 5.7
2015-Mar-03 21:33N 51°22' W 009°27'6 6.4
2015-Mar-03 20:33N 51°24' W 009°18'7 7.5
2015-Mar-03 19:33N 51°26' W 009°06'8 7.5
2015-Mar-03 18:34N 51°28' W 008°55'8 7.0
2015-Mar-03 17:29N 51°30' W 008°43'6 6.8
2015-Mar-03 16:33N 51°32' W 008°33'7 6.7
2015-Mar-03 15:33N 51°35' W 008°24'6 5.9
2015-Mar-03 14:33N 51°38' W 008°16'5 5.4
2015-Mar-03 13:33N 51°41' W 008°08'6 5.6
2015-Mar-03 12:33N 51°44' W 008°01'6 5.9
2015-Mar-03 11:33N 51°48' W 007°53'6 6.3
2015-Mar-03 10:33N 51°51' W 007°44'9 6.4
2015-Mar-03 09:12N 51°55' W 007°32'4 6.4
2015-Mar-03 08:33N 51°57' W 007°26'6 6.2
2015-Mar-03 07:33N 52°00' W 007°17'6 6.0
2015-Mar-03 06:33N 52°03' W 007°09'6 5.8
2015-Mar-03 05:34N 52°06' W 007°01'7 7.2
2015-Mar-03 04:33N 52°13' W 006°56'5 4.9
2015-Mar-03 03:33N 52°17' W 007°01'3 0.1
2015-Mar-01 15:13N 52°20' W 006°60'4 6.2
2015-Mar-01 14:33N 52°16' W 006°59'7 7.2
2015-Mar-01 13:33N 52°09' W 006°59'1 0.8
2015-Mar-01 12:31N 52°10' W 006°58'0 0.0
2015-Mar-01 11:31N 52°10' W 006°58'0 0.0
2015-Mar-01 10:30N 52°10' W 006°58'0 0.0
2015-Mar-01 09:30N 52°10' W 006°58'0 0.1
2015-Mar-01 08:08N 52°10' W 006°58'0 0.0
2015-Mar-01 07:23N 52°10' W 006°58'1 0.9
2015-Mar-01 06:34N 52°09' W 006°58'9 8.5
2015-Mar-01 05:33N 52°00' W 006°59'10 9.6
2015-Mar-01 04:33N 51°51' W 006°59'286 7.0
2015-Feb-27 11:33N 50°37' E 000°23'1111.2
2015-Feb-27 10:33N 50°41' E 000°40'1111.0
2015-Feb-27 09:33N 50°48' E 000°54'2210.3
2015-Feb-27 07:25N 51°01' E 001°21'8 9.1
2015-Feb-27 06:33N 51°06' E 001°31'9 9.4
2015-Feb-27 05:33N 51°12' E 001°43'1010.1
2015-Feb-27 04:33N 51°21' E 001°50'1111.0
2015-Feb-27 03:34N 51°30' E 001°60'1611.4
2015-Feb-27 02:10N 51°42' E 002°17'141 9.5
2015-Feb-26 11:23N 53°30' E 004°46'7 8.7
2015-Feb-26 10:33N 53°33' E 004°57'9 8.8
2015-Feb-26 09:33N 53°35' E 005°11'10 9.7
2015-Feb-26 08:33N 53°38' E 005°27'1110.7
2015-Feb-26 07:33N 53°42' E 005°44'1111.0
2015-Feb-26 06:31N 53°46' E 006°02'4510.3
2015-Feb-26 02:10N 53°57' E 007°15'4 7.1
2015-Feb-26 01:33N 53°58' E 007°22'9 8.6
2015-Feb-26 00:33N 54°00' E 007°36'9 9.0
2015-Feb-25 23:33N 54°02' E 007°52'10 9.9
2015-Feb-25 22:33N 54°01' E 008°08'1211.9
2015-Feb-25 21:33N 53°59' E 008°28'1313.1
2015-Feb-25 20:33N 53°51' E 008°46'1212.3
2015-Feb-25 19:33N 53°53' E 009°07'2 2.4
2015-Feb-25 18:33N 53°54' E 009°10'9 8.6
2015-Feb-25 17:33N 54°01' E 009°18'9 8.2
2015-Feb-25 16:29N 54°10' E 009°24'12 6.0
2015-Feb-25 14:30N 54°17' E 009°39'8 8.1
2015-Feb-25 13:33N 54°22' E 009°50'8 7.7
2015-Feb-25 12:33N 54°22' E 010°03'2 2.4
2015-Feb-25 11:33N 54°22' E 010°07'2 1.9
2015-Feb-25 10:33N 54°22' E 010°10'2 1.5
2015-Feb-25 09:33N 54°24' E 010°12'10 9.6
2015-Feb-25 08:33N 54°31' E 010°22'2110.0
2015-Feb-25 06:30N 54°36' E 010°57'1011.0
2015-Feb-25 05:33N 54°36' E 011°15'1110.8
2015-Feb-25 04:33N 54°31' E 011°31'1010.3
2015-Feb-25 03:33N 54°28' E 011°48'1010.0
2015-Feb-25 02:33N 54°27' E 012°05'9 9.1
2015-Feb-25 01:31N 54°35' E 012°14'9 9.6
2015-Feb-25 00:33N 54°41' E 012°25'10 9.9
2015-Feb-24 23:33N 54°46' E 012°40'10 9.8
2015-Feb-24 22:33N 54°47' E 012°57'1110.3
2015-Feb-24 21:27N 54°47' E 013°16'910.6
2015-Feb-24 20:33N 54°46' E 013°32'1110.6
2015-Feb-24 19:33N 54°44' E 013°51'1010.6
2015-Feb-24 18:33N 54°41' E 014°08'13610.4
2015-Feb-24 05:33N 54°56' E 018°02'1110.9
2015-Feb-24 04:33N 54°57' E 018°21'1110.6
2015-Feb-24 03:34N 54°56' E 018°39'1110.9
2015-Feb-24 02:33N 54°52' E 018°57'1110.8
2015-Feb-24 01:33N 54°48' E 019°15'1110.5
2015-Feb-24 00:33N 54°45' E 019°32'7 0.9
2015-Feb-23 16:12N 54°45' E 019°45'  
Track history (hours):
 
Tides and Currents Weather Stations Pressure Air Temp Water Temp Dewpoint Dewpoint Depression Visibility Wind Speed Wind Dir Waves Ship Positions

Flinterbirka

Last reported at 2015-Mar-04 17:20 UTC. Time now 2015-Mar-05 04:13 UTC.
Position N 53°13' W 009°11'.

Length 81 m; draft 3.8 m.

Type: Cargo ship. MMSI: 246525000.

Date/timePositionNaut miles runAvg speedWind from/ knotsBaromVisibWave heightAir tempDewpointWater temp
2015-Mar-04 17:20N 53°13' W 009°11'1411.4
2015-Mar-04 16:06N 53°03' W 009°27'4211.7
2015-Mar-04 12:28N 52°30' W 010°12'1011.3
2015-Mar-04 11:33N 52°22' W 010°23'1111.0
2015-Mar-04 10:33N 52°14' W 010°35'19 9.5
2015-Mar-04 08:33N 51°56' W 010°46'4013.1
2015-Mar-04 05:30N 51°27' W 010°03'5 4.8
2015-Mar-04 04:25N 51°25' W 009°55'2 2.0
2015-Mar-04 03:25N 51°24' W 009°52'2 1.6
2015-Mar-04 02:25N 51°23' W 009°50'8 9.4
2015-Mar-04 01:33N 51°26' W 010°02'6 5.9
2015-Mar-04 00:33N 51°24' W 009°53'5 5.5
2015-Mar-03 23:33N 51°22' W 009°45'6 5.7
2015-Mar-03 22:33N 51°20' W 009°36'6 5.7
2015-Mar-03 21:33N 51°22' W 009°27'6 6.4
2015-Mar-03 20:33N 51°24' W 009°18'7 7.5
2015-Mar-03 19:33N 51°26' W 009°06'8 7.5
2015-Mar-03 18:34N 51°28' W 008°55'8 7.0
2015-Mar-03 17:29N 51°30' W 008°43'6 6.8
2015-Mar-03 16:33N 51°32' W 008°33'7 6.7
2015-Mar-03 15:33N 51°35' W 008°24'6 5.9
2015-Mar-03 14:33N 51°38' W 008°16'5 5.4
2015-Mar-03 13:33N 51°41' W 008°08'6 5.6
2015-Mar-03 12:33N 51°44' W 008°01'6 5.9
2015-Mar-03 11:33N 51°48' W 007°53'6 6.3
2015-Mar-03 10:33N 51°51' W 007°44'9 6.4
2015-Mar-03 09:12N 51°55' W 007°32'4 6.4
2015-Mar-03 08:33N 51°57' W 007°26'6 6.2
2015-Mar-03 07:33N 52°00' W 007°17'6 6.0
2015-Mar-03 06:33N 52°03' W 007°09'6 5.8
2015-Mar-03 05:34N 52°06' W 007°01'7 7.2
2015-Mar-03 04:33N 52°13' W 006°56'5 4.9
2015-Mar-03 03:33N 52°17' W 007°01'3 0.1
2015-Mar-01 15:13N 52°20' W 006°60'4 6.2
2015-Mar-01 14:33N 52°16' W 006°59'7 7.2
2015-Mar-01 13:33N 52°09' W 006°59'1 0.8
2015-Mar-01 12:31N 52°10' W 006°58'0 0.0
2015-Mar-01 11:31N 52°10' W 006°58'0 0.0
2015-Mar-01 10:30N 52°10' W 006°58'0 0.0
2015-Mar-01 09:30N 52°10' W 006°58'0 0.1
2015-Mar-01 08:08N 52°10' W 006°58'0 0.0
2015-Mar-01 07:23N 52°10' W 006°58'1 0.9
2015-Mar-01 06:34N 52°09' W 006°58'9 8.5
2015-Mar-01 05:33N 52°00' W 006°59'10 9.6
2015-Mar-01 04:33N 51°51' W 006°59'286 7.0
2015-Feb-27 11:33N 50°37' E 000°23'1111.2
2015-Feb-27 10:33N 50°41' E 000°40'1111.0
2015-Feb-27 09:33N 50°48' E 000°54'2210.3
2015-Feb-27 07:25N 51°01' E 001°21'8 9.1
2015-Feb-27 06:33N 51°06' E 001°31'9 9.4
2015-Feb-27 05:33N 51°12' E 001°43'1010.1
2015-Feb-27 04:33N 51°21' E 001°50'1111.0
2015-Feb-27 03:34N 51°30' E 001°60'1611.4
2015-Feb-27 02:10N 51°42' E 002°17'141 9.5
2015-Feb-26 11:23N 53°30' E 004°46'7 8.7
2015-Feb-26 10:33N 53°33' E 004°57'9 8.8
2015-Feb-26 09:33N 53°35' E 005°11'10 9.7
2015-Feb-26 08:33N 53°38' E 005°27'1110.7
2015-Feb-26 07:33N 53°42' E 005°44'1111.0
2015-Feb-26 06:31N 53°46' E 006°02'4510.3
2015-Feb-26 02:10N 53°57' E 007°15'4 7.1
2015-Feb-26 01:33N 53°58' E 007°22'9 8.6
2015-Feb-26 00:33N 54°00' E 007°36'9 9.0
2015-Feb-25 23:33N 54°02' E 007°52'10 9.9
2015-Feb-25 22:33N 54°01' E 008°08'1211.9
2015-Feb-25 21:33N 53°59' E 008°28'1313.1
2015-Feb-25 20:33N 53°51' E 008°46'1212.3
2015-Feb-25 19:33N 53°53' E 009°07'2 2.4
2015-Feb-25 18:33N 53°54' E 009°10'9 8.6
2015-Feb-25 17:33N 54°01' E 009°18'9 8.2
2015-Feb-25 16:29N 54°10' E 009°24'12 6.0
2015-Feb-25 14:30N 54°17' E 009°39'8 8.1
2015-Feb-25 13:33N 54°22' E 009°50'8 7.7
2015-Feb-25 12:33N 54°22' E 010°03'2 2.4
2015-Feb-25 11:33N 54°22' E 010°07'2 1.9
2015-Feb-25 10:33N 54°22' E 010°10'2 1.5
2015-Feb-25 09:33N 54°24' E 010°12'10 9.6
2015-Feb-25 08:33N 54°31' E 010°22'2110.0
2015-Feb-25 06:30N 54°36' E 010°57'1011.0
2015-Feb-25 05:33N 54°36' E 011°15'1110.8
2015-Feb-25 04:33N 54°31' E 011°31'1010.3
2015-Feb-25 03:33N 54°28' E 011°48'1010.0
2015-Feb-25 02:33N 54°27' E 012°05'9 9.1
2015-Feb-25 01:31N 54°35' E 012°14'9 9.6
2015-Feb-25 00:33N 54°41' E 012°25'10 9.9
2015-Feb-24 23:33N 54°46' E 012°40'10 9.8
2015-Feb-24 22:33N 54°47' E 012°57'1110.3
2015-Feb-24 21:27N 54°47' E 013°16'910.6
2015-Feb-24 20:33N 54°46' E 013°32'1110.6
2015-Feb-24 19:33N 54°44' E 013°51'1010.6
2015-Feb-24 18:33N 54°41' E 014°08'13610.4
2015-Feb-24 05:33N 54°56' E 018°02'1110.9
2015-Feb-24 04:33N 54°57' E 018°21'1110.6
2015-Feb-24 03:34N 54°56' E 018°39'1110.9
2015-Feb-24 02:33N 54°52' E 018°57'1110.8
2015-Feb-24 01:33N 54°48' E 019°15'1110.5
2015-Feb-24 00:33N 54°45' E 019°32'7 0.9
2015-Feb-23 16:12N 54°45' E 019°45'  

Dump ship's entire track history